Latest Weather Observations for Kadina

IDS60801

Issued at 8:05 pm CST Sunday 20 April 2014 (issued every 30 minutes, with the page automatically refreshed every 10 minutes)

About weather observations | Map of weather stations | Latest weather observations for SA | Other Formats
Station Details ID: 022050 Name: KADINA AWS Lat: -33.97 Lon: 137.66 Height: 41.14 m
Data from the previous 72 hours. | See also: Recent months at Kadina
Date/Time
CST
Temp
°C
App
Temp
°C
Dew
Point
Rel
Hum
%
Delta-T
°C
Wind Press
QNH
hPa
Press
MSL
hPa
Rain
since 9 am
mm
Dir
 
Spd
km/h
Gust
km/h
Spd
kts
Gust
kts
20/08:00pm 16.1 13.0 11.7 75 2.4 E 19 20 10 11 1017.3 - 0.0
20/07:30pm 15.1 12.6 11.1 77 2.1 ESE 15 15 8 8 1017.5 - 0.0
20/07:00pm 15.7 13.8 10.5 71 2.8 ESE 11 13 6 7 1017.5 - 0.0
20/06:30pm 16.9 14.7 9.3 61 4.0 SSE 11 13 6 7 1017.3 - 0.0
20/06:00pm 18.6 16.7 10.4 59 4.4 SSE 11 13 6 7 1017.1 1017.0 0.0
20/05:30pm 20.0 18.7 11.2 57 4.8 SSE 9 11 5 6 1016.7 - 0.0
20/05:00pm 21.2 20.4 11.8 55 5.3 SSW 7 11 4 6 1016.9 - 0.0
20/04:30pm 21.2 19.5 11.2 53 5.5 WSW 11 15 6 8 1017.1 - 0.0
20/04:00pm 21.3 19.0 11.6 54 5.4 WNW 15 17 8 9 1017.0 - 0.0
20/03:30pm 21.9 20.1 12.2 54 5.5 W 13 20 7 11 1017.1 - 0.0
20/03:00pm 22.1 19.8 11.8 52 5.8 WNW 15 20 8 11 1017.1 1017.0 0.0
20/02:30pm 21.9 19.8 11.0 50 6.0 NW 13 19 7 10 1016.9 - 0.0
20/02:00pm 22.0 19.6 11.4 51 5.9 NW 15 19 8 10 1017.0 - 0.0
20/01:30pm 21.7 18.5 11.1 51 5.9 NW 19 22 10 12 1017.3 - 0.0
20/01:00pm 22.2 19.4 11.3 50 6.1 WNW 17 22 9 12 1017.6 - 0.0
20/12:30pm 21.8 18.9 10.9 50 6.0 NW 17 22 9 12 1017.8 - 0.0
20/12:00pm 22.3 19.4 11.1 49 6.2 NNW 17 24 9 13 1018.2 1018.1 0.0
20/11:30am 22.2 20.2 10.0 46 6.6 N 11 20 6 11 1018.4 - 0.0
20/11:00am 21.2 19.5 9.8 48 6.1 NE 9 13 5 7 1018.6 - 0.0
20/10:30am 20.4 18.3 9.6 50 5.8 ENE 11 15 6 8 1018.9 - 0.0
20/10:00am 19.8 18.4 9.7 52 5.4 E 7 11 4 6 1018.9 - 0.0
20/09:30am 19.0 17.2 9.5 54 5.0 ENE 9 11 5 6 1019.1 - 0.0
20/09:00am 17.6 15.7 9.2 58 4.4 E 9 11 5 6 1019.1 1019.0 0.0
20/08:30am 14.7 13.0 9.7 72 2.6 E 9 11 5 6 1019.2 - 0.0
20/08:00am 11.4 9.5 9.0 85 1.2 E 9 11 5 6 1019.1 - 0.0
20/07:30am 8.9 6.5 8.8 99 0.0 ESE 11 13 6 7 1018.8 - 0.0
20/07:00am 6.9 4.1 6.8 99 0.0 E 11 11 6 6 1018.4 - 0.0
20/06:30am 6.8 3.9 6.7 99 0.0 E 11 11 6 6 1018.2 - 0.0
20/06:00am 6.9 4.4 6.6 98 0.1 E 9 11 5 6 1018.0 1017.9 0.0
20/05:30am 7.8 5.4 7.2 96 0.3 E 9 11 5 6 1017.9 - 0.0
20/05:00am 8.2 5.9 7.4 95 0.4 ESE 9 11 5 6 1017.7 - 0.0
20/04:30am 9.1 6.5 7.9 92 0.6 E 11 11 6 6 1017.3 - 0.0
20/04:00am 9.5 7.4 8.1 91 0.7 ESE 9 9 5 5 1017.4 - 0.0
20/03:30am 10.3 8.2 8.4 88 0.9 SE 9 11 5 6 1017.3 - 0.0
20/03:00am 10.7 9.1 8.6 87 1.0 SSE 7 9 4 5 1017.6 1017.5 0.0
20/02:30am 10.6 8.7 8.9 89 0.8 SE 9 11 5 6 1017.5 - 0.0
20/02:00am 10.4 8.4 8.5 88 0.9 ESE 9 9 5 5 1017.6 - 0.0
20/01:30am 10.1 7.8 8.9 92 0.6 ESE 11 11 6 6 1017.6 - 0.0
20/01:00am 9.1 6.5 7.9 92 0.6 ESE 11 13 6 7 1017.8 - 0.0
20/12:30am 8.4 5.3 7.2 92 0.6 ESE 13 13 7 7 1018.0 - 0.0
20/12:00am 8.4 5.2 7.0 91 0.7 ESE 13 15 7 8 1018.2 1018.1 0.0
 
Date/Time
CST
Temp
°C
App
Temp
°C
Dew
Point
Rel
Hum
%
Delta-T
°C
Wind Press
QNH
hPa
Press
MSL
hPa
Rain
since 9 am
mm
Dir
 
Spd
km/h
Gust
km/h
Spd
kts
Gust
kts
19/11:30pm 8.4 5.1 6.4 87 0.9 ESE 13 15 7 8 1018.2 - 0.0
19/11:00pm 8.5 5.6 6.6 88 0.9 E 11 13 6 7 1018.3 - 0.0
19/10:30pm 9.1 5.9 6.9 86 1.0 E 13 15 7 8 1018.5 - 0.0
19/10:00pm 9.5 6.3 6.9 84 1.2 ESE 13 15 7 8 1018.5 - 0.0
19/09:30pm 10.4 6.8 6.9 79 1.7 ESE 15 17 8 9 1018.5 - 0.0
19/09:00pm 10.7 7.5 6.8 77 1.8 ESE 13 13 7 7 1018.4 1018.3 0.0
19/08:30pm 11.6 7.9 6.5 71 2.4 ESE 15 17 8 9 1018.2 - 0.0
19/08:00pm 13.6 10.5 7.4 66 3.0 E 13 15 7 8 1018.2 - 0.0
19/07:30pm 14.7 11.3 7.5 62 3.6 E 15 17 8 9 1018.2 - 0.0
19/07:00pm 15.6 12.2 7.6 59 4.0 ESE 15 17 8 9 1018.3 - 0.0
19/06:30pm 16.3 12.4 7.3 55 4.5 ESE 17 20 9 11 1018.2 - 0.0
19/06:00pm 17.7 14.7 7.7 52 5.1 SSE 13 17 7 9 1018.1 1018.0 0.0
19/05:30pm 18.1 13.9 7.5 50 5.4 S 19 20 10 11 1018.1 - 0.0
19/05:00pm 18.0 15.3 8.8 55 4.8 SSW 13 17 7 9 1018.1 - 0.0
19/04:30pm 17.9 14.8 9.0 56 4.6 SW 15 20 8 11 1018.2 - 0.0
19/04:00pm 17.7 14.8 8.3 54 4.8 WSW 13 19 7 10 1018.5 - 0.0
19/03:30pm 18.2 14.9 8.2 52 5.1 W 15 22 8 12 1018.7 - 0.0
19/03:00pm 18.7 14.7 8.1 50 5.4 W 19 28 10 15 1018.8 1018.7 0.0
19/02:30pm 19.6 15.0 8.0 47 6.0 WSW 22 30 12 16 1018.7 - 0.0
19/02:00pm 19.8 15.7 7.9 46 6.1 SW 19 32 10 17 1018.6 - 0.0
19/01:30pm 20.0 15.9 8.0 46 6.2 SW 19 32 10 17 1018.9 - 0.0
19/01:00pm 19.4 15.7 8.1 48 5.8 WSW 17 26 9 14 1019.7 - 0.0
19/12:30pm 20.4 17.5 8.1 45 6.4 SSW 13 28 7 15 1020.3 - 0.0
19/12:00pm 19.0 16.3 7.4 47 5.9 SSW 11 15 6 8 1020.9 1020.8 0.0
19/11:30am 19.1 16.4 7.5 47 5.9 ESE 11 20 6 11 1021.6 - 0.0
19/11:00am 18.2 15.0 7.0 48 5.6 E 13 19 7 10 1022.0 - 0.0
19/10:30am 17.9 15.1 7.0 49 5.5 E 11 20 6 11 1022.2 - 0.0
19/10:00am 17.9 14.0 7.0 49 5.5 ENE 17 22 9 12 1022.5 - 0.0
19/09:30am 16.9 12.5 7.3 53 4.8 ENE 20 26 11 14 1022.8 - 0.0
19/09:00am 15.4 11.8 10.0 70 2.8 ENE 19 20 10 11 1023.0 1022.9 0.0
19/08:30am 13.3 10.7 9.4 77 2.0 ENE 13 17 7 9 1023.0 - 0.0
19/08:00am 9.7 7.0 8.9 95 0.4 E 13 15 7 8 1022.9 - 0.0
19/07:30am 7.3 3.8 7.2 99 0.0 ESE 15 19 8 10 1022.6 - 0.0
19/07:00am 5.4 1.1 5.3 99 0.0 ESE 17 20 9 11 1022.5 - 0.0
19/06:30am 5.3 1.7 5.2 99 0.0 ESE 13 15 7 8 1022.5 - 0.0
19/06:00am 5.2 1.6 5.1 99 0.0 SE 13 13 7 7 1022.5 1022.4 0.0
19/05:30am 5.3 1.4 5.2 99 0.0 ESE 15 17 8 9 1022.2 - 0.0
19/05:00am 4.5 0.8 4.4 99 0.0 ESE 13 13 7 7 1022.3 - 0.0
19/04:30am 4.7 1.8 4.6 99 0.0 E 9 9 5 5 1022.4 - 0.0
19/04:00am 5.0 1.8 4.9 99 0.0 E 11 11 6 6 1022.3 - 0.0
19/03:30am 5.0 1.8 4.9 99 0.0 E 11 11 6 6 1022.3 - 0.0
19/03:00am 5.7 2.9 5.3 97 0.2 E 9 9 5 5 1022.3 1022.2 0.0
19/02:30am 6.2 2.7 5.6 96 0.3 ESE 13 15 7 8 1022.4 - 0.0
19/02:00am 7.1 3.4 6.4 95 0.3 SE 15 17 8 9 1022.4 - 0.0
19/01:30am 6.9 3.2 6.2 95 0.3 ESE 15 17 8 9 1022.6 - 0.0
19/01:00am 7.6 4.1 7.0 96 0.3 ESE 15 17 8 9 1022.7 - 0.0
19/12:30am 7.4 3.9 7.0 97 0.2 ESE 15 17 8 9 1022.7 - 0.0
19/12:00am 7.4 3.9 7.0 97 0.2 ESE 15 17 8 9 1022.8 1022.7 0.0
 
Date/Time
CST
Temp
°C
App
Temp
°C
Dew
Point
Rel
Hum
%
Delta-T
°C
Wind Press
QNH
hPa
Press
MSL
hPa
Rain
since 9 am
mm
Dir
 
Spd
km/h
Gust
km/h
Spd
kts
Gust
kts
18/11:30pm 7.7 4.1 6.8 94 0.4 ESE 15 17 8 9 1022.9 - 0.0
18/11:00pm 8.4 4.5 7.3 93 0.5 ESE 17 20 9 11 1023.1 - 0.0
18/10:30pm 8.4 5.2 7.0 91 0.7 ESE 13 15 7 8 1023.4 - 0.0
18/10:00pm 8.7 5.9 7.0 89 0.8 ESE 11 11 6 6 1023.5 - 0.0
18/09:30pm 9.4 6.7 7.3 87 1.0 SE 11 13 6 7 1023.6 - 0.0
18/09:00pm 10.5 8.0 8.1 85 1.2 ESE 11 13 6 7 1023.5 1023.4 0.0
18/08:30pm 10.3 7.9 7.2 81 1.5 SE 9 9 5 5 1023.4 - 0.0
18/08:00pm 11.6 9.3 7.5 76 2.0 SE 9 11 5 6 1023.3 - 0.0
18/07:30pm 12.8 10.3 8.1 73 2.3 SE 11 13 6 7 1023.2 - 0.0
18/07:00pm 13.4 10.8 7.8 69 2.8 SE 11 13 6 7 1023.0 - 0.0
18/06:30pm 15.0 11.8 8.3 64 3.4 SE 15 17 8 9 1022.7 - 0.0
18/06:00pm 16.1 12.1 8.3 60 3.9 SE 19 24 10 13 1022.5 1022.4 0.0
18/05:30pm 17.6 12.8 8.7 56 4.6 SE 24 30 13 16 1022.2 - 0.0
18/05:00pm 19.2 14.5 9.4 53 5.2 SSE 24 33 13 18 1021.9 - 0.0
18/04:30pm 20.2 15.2 9.5 50 5.7 S 26 35 14 19 1021.6 - 0.0
18/04:00pm 20.7 16.3 10.5 52 5.6 SSW 24 33 13 18 1021.8 - 0.0
18/03:30pm 21.0 15.8 10.2 50 5.9 SSW 28 35 15 19 1021.7 - 0.0
18/03:04pm 21.2 16.2 11.0 52 5.6 SSW 28 46 15 25 1021.6 - 0.0
18/03:00pm 21.4 16.4 11.1 52 5.7 SSW 28 39 15 21 1021.6 1021.5 0.0
18/02:30pm 21.7 17.1 11.1 51 5.9 SSW 26 33 14 18 1021.6 - 0.0
18/02:00pm 21.6 17.0 11.0 51 5.9 SSW 26 39 14 21 1021.3 - 0.0
18/01:30pm 22.1 16.2 11.2 50 6.1 SSW 33 44 18 24 1021.4 - 0.0
18/01:00pm 22.1 17.1 10.9 49 6.2 SSW 28 43 15 23 1021.4 - 0.0
18/12:30pm 22.4 18.3 12.6 54 5.6 SSW 26 37 14 20 1021.8 - 0.0
18/12:00pm 21.7 17.5 12.3 55 5.3 SSW 26 41 14 22 1022.3 1022.2 0.0
18/11:30am 21.9 18.3 13.0 57 5.1 S 24 33 13 18 1022.5 - 0.0
18/11:00am 21.2 16.8 11.8 55 5.3 S 26 35 14 19 1022.5 - 0.0
18/10:30am 21.7 19.2 15.1 66 3.9 S 22 35 12 19 1022.6 - 0.0
18/10:00am 19.9 16.7 15.3 75 2.7 SSW 26 32 14 17 1022.6 - 0.0
18/09:30am 20.2 17.4 15.4 74 2.8 S 24 32 13 17 1022.4 - 0.0
18/09:00am 19.4 16.4 15.9 80 2.1 SSW 26 33 14 18 1022.3 1022.2 0.0
18/08:30am 18.1 16.5 17.5 96 0.4 WSW 22 32 12 17 1022.2 - 0.0
18/08:00am 17.8 18.0 17.6 99 0.1 WSW 13 22 7 12 1021.8 - 0.0
18/07:30am 16.1 16.4 16.1 100 0.0 SW 9 11 5 6 1021.5 - 0.0
18/07:00am 14.3 13.6 14.3 100 0.0 WSW 11 13 6 7 1021.1 - 0.0
18/06:30am 13.7 13.2 13.7 100 0.0 SW 9 11 5 6 1020.9 - 0.0
18/06:00am 13.2 12.5 13.2 100 0.0 SSW 9 11 5 6 1020.8 1020.7 0.0
18/05:30am 13.5 12.1 13.5 100 0.0 SSW 13 13 7 7 1020.5 - 0.0
18/05:00am 15.1 14.3 15.1 100 0.0 SW 13 17 7 9 1020.6 - 0.0
18/04:30am 15.6 14.6 15.6 100 0.0 WSW 15 17 8 9 1020.6 - 0.0
18/04:00am 15.9 14.6 15.9 100 0.0 SW 17 20 9 11 1020.3 - 0.0
18/03:30am 16.4 15.3 16.4 100 0.0 SW 17 20 9 11 1020.2 - 0.0
18/03:00am 16.0 14.8 16.0 100 0.0 WSW 17 20 9 11 1020.2 1020.1 0.0
18/02:30am 15.6 14.5 15.4 99 0.1 WSW 15 17 8 9 1020.1 - 0.0
18/02:00am 16.3 15.1 16.1 99 0.1 W 17 20 9 11 1020.0 - 0.0
18/01:30am 16.5 15.7 16.2 98 0.2 W 15 19 8 10 1020.2 - 0.0
18/01:00am 17.1 16.0 16.3 95 0.5 WSW 17 20 9 11 1020.3 - 0.0
18/12:30am 17.3 16.1 16.2 93 0.7 W 17 20 9 11 1020.1 - 0.0
18/12:00am 17.2 15.4 15.4 89 1.0 W 19 20 10 11 1020.3 1020.2 0.0
 
Date/Time
CST
Temp
°C
App
Temp
°C
Dew
Point
Rel
Hum
%
Delta-T
°C
Wind Press
QNH
hPa
Press
MSL
hPa
Rain
since 9 am
mm
Dir
 
Spd
km/h
Gust
km/h
Spd
kts
Gust
kts
17/11:30pm 17.6 15.6 15.0 85 1.5 WSW 19 22 10 12 1020.4 - 0.0
17/11:00pm 17.5 16.8 15.5 88 1.2 W 13 17 7 9 1020.6 - 0.0
17/10:30pm 17.1 16.0 15.3 89 1.1 WSW 15 17 8 9 1020.8 - 0.0
17/10:00pm 16.1 14.1 13.8 86 1.3 SW 17 17 9 9 1020.7 - 0.0
17/09:30pm 16.1 14.5 12.8 81 1.8 SSW 13 17 7 9 1020.5 - 0.0
17/09:00pm 15.9 15.4 12.6 81 1.8 SW 7 11 4 6 1020.3 1020.2 0.0
17/08:30pm 15.7 15.7 12.3 80 1.9 SSW 4 9 2 5 1020.1 - 0.0

Other Formats:

Comma delimited format used in spreadsheet applications
http://www.bom.gov.au/fwo/IDS60801/IDS60801.94685.axf

JavaScript Object Notation format (JSON) in row-major order
http://www.bom.gov.au/fwo/IDS60801/IDS60801.94685.json